sensor_id;sensor_type;location;lat;lon;timestamp;P1;durP1;ratioP1;P2;durP2;ratioP2
5937;SDS011;2994;51.220;4.412;2022-08-19T00:01:31;27.30;;;24.30;;
5937;SDS011;2994;51.220;4.412;2022-08-19T00:03:59;28.80;;;24.33;;
5937;SDS011;2994;51.220;4.412;2022-08-19T00:06:26;33.23;;;26.70;;
5937;SDS011;2994;51.220;4.412;2022-08-19T00:08:53;36.90;;;28.43;;
5937;SDS011;2994;51.220;4.412;2022-08-19T00:11:19;33.70;;;26.70;;
5937;SDS011;2994;51.220;4.412;2022-08-19T00:13:45;35.30;;;29.90;;
5937;SDS011;2994;51.220;4.412;2022-08-19T00:16:13;33.90;;;27.70;;
5937;SDS011;2994;51.220;4.412;2022-08-19T00:18:39;33.17;;;27.47;;
5937;SDS011;2994;51.220;4.412;2022-08-19T00:21:04;37.20;;;29.60;;
5937;SDS011;2994;51.220;4.412;2022-08-19T00:23:32;37.40;;;30.70;;
5937;SDS011;2994;51.220;4.412;2022-08-19T00:25:59;43.10;;;32.90;;
5937;SDS011;2994;51.220;4.412;2022-08-19T00:28:25;39.70;;;31.40;;
5937;SDS011;2994;51.220;4.412;2022-08-19T00:30:50;40.93;;;31.17;;
5937;SDS011;2994;51.220;4.412;2022-08-19T00:33:18;41.80;;;31.73;;
5937;SDS011;2994;51.220;4.412;2022-08-19T00:35:43;41.43;;;31.23;;
5937;SDS011;2994;51.220;4.412;2022-08-19T00:38:09;40.77;;;32.30;;
5937;SDS011;2994;51.220;4.412;2022-08-19T00:40:34;38.47;;;30.40;;
5937;SDS011;2994;51.220;4.412;2022-08-19T00:42:59;39.73;;;30.80;;
5937;SDS011;2994;51.220;4.412;2022-08-19T00:45:26;41.07;;;33.07;;
5937;SDS011;2994;51.220;4.412;2022-08-19T00:47:57;41.73;;;33.10;;
5937;SDS011;2994;51.220;4.412;2022-08-19T00:50:22;41.53;;;31.30;;
5937;SDS011;2994;51.220;4.412;2022-08-19T00:52:48;38.77;;;30.90;;
5937;SDS011;2994;51.220;4.412;2022-08-19T00:55:20;40.27;;;31.00;;
5937;SDS011;2994;51.220;4.412;2022-08-19T00:57:50;39.30;;;28.97;;
5937;SDS011;2994;51.220;4.412;2022-08-19T01:00:20;39.80;;;31.20;;
5937;SDS011;2994;51.220;4.412;2022-08-19T01:02:46;38.60;;;30.00;;
5937;SDS011;2994;51.220;4.412;2022-08-19T01:05:14;35.97;;;29.80;;
5937;SDS011;2994;51.220;4.412;2022-08-19T01:07:46;37.30;;;30.40;;
5937;SDS011;2994;51.220;4.412;2022-08-19T01:10:15;38.07;;;29.80;;
5937;SDS011;2994;51.220;4.412;2022-08-19T01:12:43;39.53;;;31.03;;
5937;SDS011;2994;51.220;4.412;2022-08-19T01:15:10;38.97;;;31.23;;
5937;SDS011;2994;51.220;4.412;2022-08-19T01:17:38;35.33;;;29.83;;
5937;SDS011;2994;51.220;4.412;2022-08-19T01:20:05;37.93;;;30.50;;
5937;SDS011;2994;51.220;4.412;2022-08-19T01:22:34;35.63;;;29.10;;
5937;SDS011;2994;51.220;4.412;2022-08-19T01:25:09;37.30;;;30.20;;
5937;SDS011;2994;51.220;4.412;2022-08-19T01:27:38;40.70;;;29.80;;
5937;SDS011;2994;51.220;4.412;2022-08-19T01:30:05;40.70;;;30.53;;
5937;SDS011;2994;51.220;4.412;2022-08-19T01:32:32;41.20;;;31.60;;
5937;SDS011;2994;51.220;4.412;2022-08-19T01:34:57;42.53;;;33.10;;
5937;SDS011;2994;51.220;4.412;2022-08-19T01:37:23;39.10;;;31.80;;
5937;SDS011;2994;51.220;4.412;2022-08-19T01:39:48;42.93;;;34.00;;
5937;SDS011;2994;51.220;4.412;2022-08-19T01:42:14;41.23;;;34.30;;
5937;SDS011;2994;51.220;4.412;2022-08-19T01:44:40;45.43;;;33.37;;
5937;SDS011;2994;51.220;4.412;2022-08-19T01:47:08;43.13;;;32.30;;
5937;SDS011;2994;51.220;4.412;2022-08-19T01:49:35;48.80;;;32.83;;
5937;SDS011;2994;51.220;4.412;2022-08-19T01:52:00;35.33;;;29.03;;
5937;SDS011;2994;51.220;4.412;2022-08-19T01:54:26;37.43;;;29.60;;
5937;SDS011;2994;51.220;4.412;2022-08-19T01:56:52;37.80;;;29.30;;
5937;SDS011;2994;51.220;4.412;2022-08-19T01:59:24;34.07;;;27.90;;
5937;SDS011;2994;51.220;4.412;2022-08-19T02:01:50;35.57;;;26.80;;
5937;SDS011;2994;51.220;4.412;2022-08-19T02:04:15;31.77;;;24.80;;
5937;SDS011;2994;51.220;4.412;2022-08-19T02:06:41;32.93;;;23.67;;
5937;SDS011;2994;51.220;4.412;2022-08-19T02:09:06;29.80;;;25.97;;
5937;SDS011;2994;51.220;4.412;2022-08-19T02:11:33;26.43;;;21.50;;
5937;SDS011;2994;51.220;4.412;2022-08-19T02:14:01;29.90;;;24.00;;
5937;SDS011;2994;51.220;4.412;2022-08-19T02:16:29;30.47;;;24.37;;
5937;SDS011;2994;51.220;4.412;2022-08-19T02:18:55;34.70;;;23.80;;
5937;SDS011;2994;51.220;4.412;2022-08-19T02:21:22;32.00;;;24.83;;
5937;SDS011;2994;51.220;4.412;2022-08-19T02:23:49;31.70;;;24.70;;
5937;SDS011;2994;51.220;4.412;2022-08-19T02:26:15;32.53;;;25.27;;
5937;SDS011;2994;51.220;4.412;2022-08-19T02:28:41;32.23;;;24.57;;
5937;SDS011;2994;51.220;4.412;2022-08-19T02:31:15;27.87;;;22.90;;
5937;SDS011;2994;51.220;4.412;2022-08-19T02:33:42;29.93;;;22.80;;
5937;SDS011;2994;51.220;4.412;2022-08-19T02:36:09;30.87;;;23.90;;
5937;SDS011;2994;51.220;4.412;2022-08-19T02:38:36;32.47;;;25.07;;
5937;SDS011;2994;51.220;4.412;2022-08-19T02:41:03;37.13;;;27.30;;
5937;SDS011;2994;51.220;4.412;2022-08-19T02:43:32;31.97;;;24.87;;
5937;SDS011;2994;51.220;4.412;2022-08-19T02:46:01;30.50;;;24.80;;
5937;SDS011;2994;51.220;4.412;2022-08-19T02:48:35;34.80;;;25.23;;
5937;SDS011;2994;51.220;4.412;2022-08-19T02:51:01;33.73;;;25.10;;
5937;SDS011;2994;51.220;4.412;2022-08-19T02:53:26;34.30;;;27.37;;
5937;SDS011;2994;51.220;4.412;2022-08-19T02:55:53;37.83;;;27.87;;
5937;SDS011;2994;51.220;4.412;2022-08-19T02:58:19;33.23;;;27.57;;
5937;SDS011;2994;51.220;4.412;2022-08-19T03:00:48;36.77;;;27.07;;
5937;SDS011;2994;51.220;4.412;2022-08-19T03:03:17;38.37;;;28.43;;
5937;SDS011;2994;51.220;4.412;2022-08-19T03:05:43;38.97;;;28.93;;
5937;SDS011;2994;51.220;4.412;2022-08-19T03:08:09;37.73;;;30.17;;
5937;SDS011;2994;51.220;4.412;2022-08-19T03:10:46;37.00;;;28.93;;
5937;SDS011;2994;51.220;4.412;2022-08-19T03:13:16;37.50;;;27.50;;
5937;SDS011;2994;51.220;4.412;2022-08-19T03:15:43;36.33;;;25.90;;
5937;SDS011;2994;51.220;4.412;2022-08-19T03:18:11;35.90;;;25.30;;
5937;SDS011;2994;51.220;4.412;2022-08-19T03:20:44;34.67;;;24.60;;
5937;SDS011;2994;51.220;4.412;2022-08-19T03:23:12;32.67;;;24.10;;
5937;SDS011;2994;51.220;4.412;2022-08-19T03:25:39;33.50;;;24.63;;
5937;SDS011;2994;51.220;4.412;2022-08-19T03:28:07;30.07;;;23.97;;
5937;SDS011;2994;51.220;4.412;2022-08-19T03:30:34;31.47;;;24.10;;
5937;SDS011;2994;51.220;4.412;2022-08-19T03:32:59;32.30;;;25.87;;
5937;SDS011;2994;51.220;4.412;2022-08-19T03:35:25;33.00;;;23.30;;
5937;SDS011;2994;51.220;4.412;2022-08-19T03:37:51;31.80;;;23.60;;
5937;SDS011;2994;51.220;4.412;2022-08-19T03:40:17;30.27;;;22.63;;
5937;SDS011;2994;51.220;4.412;2022-08-19T03:42:43;29.80;;;21.93;;
5937;SDS011;2994;51.220;4.412;2022-08-19T03:45:11;28.00;;;22.93;;
5937;SDS011;2994;51.220;4.412;2022-08-19T03:47:36;33.50;;;24.63;;
5937;SDS011;2994;51.220;4.412;2022-08-19T03:50:02;33.67;;;23.73;;
5937;SDS011;2994;51.220;4.412;2022-08-19T03:52:29;30.30;;;23.00;;
5937;SDS011;2994;51.220;4.412;2022-08-19T03:54:54;30.50;;;21.93;;
5937;SDS011;2994;51.220;4.412;2022-08-19T03:57:20;29.90;;;22.53;;
5937;SDS011;2994;51.220;4.412;2022-08-19T03:59:45;32.63;;;22.90;;
5937;SDS011;2994;51.220;4.412;2022-08-19T04:02:11;27.37;;;20.67;;
5937;SDS011;2994;51.220;4.412;2022-08-19T04:04:37;29.13;;;21.47;;
5937;SDS011;2994;51.220;4.412;2022-08-19T04:07:05;28.03;;;21.30;;
5937;SDS011;2994;51.220;4.412;2022-08-19T04:09:32;27.57;;;21.17;;
5937;SDS011;2994;51.220;4.412;2022-08-19T04:11:59;27.43;;;19.90;;
5937;SDS011;2994;51.220;4.412;2022-08-19T04:14:26;29.37;;;19.67;;
5937;SDS011;2994;51.220;4.412;2022-08-19T04:16:55;26.47;;;20.40;;
5937;SDS011;2994;51.220;4.412;2022-08-19T04:19:21;26.90;;;19.63;;
5937;SDS011;2994;51.220;4.412;2022-08-19T04:21:49;28.90;;;20.40;;
5937;SDS011;2994;51.220;4.412;2022-08-19T04:24:17;28.47;;;20.97;;
5937;SDS011;2994;51.220;4.412;2022-08-19T04:26:43;27.40;;;20.30;;
5937;SDS011;2994;51.220;4.412;2022-08-19T04:29:14;28.40;;;21.40;;
5937;SDS011;2994;51.220;4.412;2022-08-19T04:31:42;29.43;;;19.93;;
5937;SDS011;2994;51.220;4.412;2022-08-19T04:34:09;25.97;;;19.97;;
5937;SDS011;2994;51.220;4.412;2022-08-19T04:36:36;27.60;;;18.20;;
5937;SDS011;2994;51.220;4.412;2022-08-19T04:39:06;31.20;;;20.00;;
5937;SDS011;2994;51.220;4.412;2022-08-19T04:41:37;27.23;;;19.70;;
5937;SDS011;2994;51.220;4.412;2022-08-19T04:44:21;27.20;;;19.80;;
5937;SDS011;2994;51.220;4.412;2022-08-19T04:46:47;26.73;;;19.47;;
5937;SDS011;2994;51.220;4.412;2022-08-19T04:49:14;26.03;;;20.07;;
5937;SDS011;2994;51.220;4.412;2022-08-19T04:51:43;28.17;;;19.07;;
5937;SDS011;2994;51.220;4.412;2022-08-19T04:54:09;25.83;;;20.20;;
5937;SDS011;2994;51.220;4.412;2022-08-19T04:56:35;33.43;;;20.77;;
5937;SDS011;2994;51.220;4.412;2022-08-19T04:59:01;30.50;;;19.53;;
5937;SDS011;2994;51.220;4.412;2022-08-19T05:01:30;29.73;;;18.40;;
5937;SDS011;2994;51.220;4.412;2022-08-19T05:03:58;33.17;;;19.97;;
5937;SDS011;2994;51.220;4.412;2022-08-19T05:06:25;27.67;;;20.33;;
5937;SDS011;2994;51.220;4.412;2022-08-19T05:08:51;30.17;;;19.60;;
5937;SDS011;2994;51.220;4.412;2022-08-19T05:11:18;25.90;;;19.17;;
5937;SDS011;2994;51.220;4.412;2022-08-19T05:13:46;24.57;;;18.20;;
5937;SDS011;2994;51.220;4.412;2022-08-19T05:16:14;27.00;;;16.97;;
5937;SDS011;2994;51.220;4.412;2022-08-19T05:18:42;26.97;;;17.73;;
5937;SDS011;2994;51.220;4.412;2022-08-19T05:21:27;21.53;;;16.47;;
5937;SDS011;2994;51.220;4.412;2022-08-19T05:24:12;24.63;;;18.20;;
5937;SDS011;2994;51.220;4.412;2022-08-19T05:26:39;21.63;;;16.50;;
5937;SDS011;2994;51.220;4.412;2022-08-19T05:29:06;21.83;;;15.93;;
5937;SDS011;2994;51.220;4.412;2022-08-19T05:31:33;22.37;;;16.07;;
5937;SDS011;2994;51.220;4.412;2022-08-19T05:34:00;23.70;;;15.47;;
5937;SDS011;2994;51.220;4.412;2022-08-19T05:36:27;20.30;;;16.07;;
5937;SDS011;2994;51.220;4.412;2022-08-19T05:38:53;21.00;;;16.50;;
5937;SDS011;2994;51.220;4.412;2022-08-19T05:41:19;24.93;;;16.57;;
5937;SDS011;2994;51.220;4.412;2022-08-19T05:43:52;19.73;;;15.53;;
5937;SDS011;2994;51.220;4.412;2022-08-19T05:46:18;22.47;;;16.00;;
5937;SDS011;2994;51.220;4.412;2022-08-19T05:48:44;20.27;;;15.53;;
5937;SDS011;2994;51.220;4.412;2022-08-19T05:51:11;25.27;;;17.17;;
5937;SDS011;2994;51.220;4.412;2022-08-19T05:53:37;18.30;;;14.70;;
5937;SDS011;2994;51.220;4.412;2022-08-19T05:56:10;18.17;;;14.70;;
5937;SDS011;2994;51.220;4.412;2022-08-19T05:58:38;18.03;;;13.60;;
5937;SDS011;2994;51.220;4.412;2022-08-19T06:01:04;18.93;;;14.07;;
5937;SDS011;2994;51.220;4.412;2022-08-19T06:03:35;15.67;;;12.87;;
5937;SDS011;2994;51.220;4.412;2022-08-19T06:06:02;22.00;;;12.87;;
5937;SDS011;2994;51.220;4.412;2022-08-19T06:08:29;16.50;;;13.37;;
5937;SDS011;2994;51.220;4.412;2022-08-19T06:10:55;17.80;;;13.03;;
5937;SDS011;2994;51.220;4.412;2022-08-19T06:13:21;15.87;;;13.60;;
5937;SDS011;2994;51.220;4.412;2022-08-19T06:15:48;17.87;;;12.17;;
5937;SDS011;2994;51.220;4.412;2022-08-19T06:18:15;18.40;;;12.93;;
5937;SDS011;2994;51.220;4.412;2022-08-19T06:20:41;15.80;;;11.60;;
5937;SDS011;2994;51.220;4.412;2022-08-19T06:23:07;16.70;;;13.13;;
5937;SDS011;2994;51.220;4.412;2022-08-19T06:25:33;15.53;;;11.20;;
5937;SDS011;2994;51.220;4.412;2022-08-19T06:28:00;16.67;;;13.50;;
5937;SDS011;2994;51.220;4.412;2022-08-19T06:30:26;16.70;;;11.77;;
5937;SDS011;2994;51.220;4.412;2022-08-19T06:32:52;16.17;;;12.33;;
5937;SDS011;2994;51.220;4.412;2022-08-19T06:35:18;18.70;;;14.13;;
5937;SDS011;2994;51.220;4.412;2022-08-19T06:37:43;21.13;;;14.60;;
5937;SDS011;2994;51.220;4.412;2022-08-19T06:40:09;17.60;;;14.03;;
5937;SDS011;2994;51.220;4.412;2022-08-19T06:42:36;20.10;;;14.80;;
5937;SDS011;2994;51.220;4.412;2022-08-19T06:45:03;24.10;;;17.10;;
5937;SDS011;2994;51.220;4.412;2022-08-19T06:47:29;21.07;;;14.70;;
5937;SDS011;2994;51.220;4.412;2022-08-19T06:49:57;23.20;;;15.60;;
5937;SDS011;2994;51.220;4.412;2022-08-19T06:52:26;23.77;;;14.10;;
5937;SDS011;2994;51.220;4.412;2022-08-19T06:54:53;20.57;;;14.70;;
5937;SDS011;2994;51.220;4.412;2022-08-19T06:57:20;20.83;;;15.83;;
5937;SDS011;2994;51.220;4.412;2022-08-19T06:59:46;20.60;;;13.37;;
5937;SDS011;2994;51.220;4.412;2022-08-19T07:02:11;17.90;;;14.30;;
5937;SDS011;2994;51.220;4.412;2022-08-19T07:04:36;19.57;;;14.97;;
5937;SDS011;2994;51.220;4.412;2022-08-19T07:07:07;19.77;;;15.57;;
5937;SDS011;2994;51.220;4.412;2022-08-19T07:09:35;21.43;;;12.77;;
5937;SDS011;2994;51.220;4.412;2022-08-19T07:12:03;16.53;;;13.37;;
5937;SDS011;2994;51.220;4.412;2022-08-19T07:14:31;19.03;;;14.13;;
5937;SDS011;2994;51.220;4.412;2022-08-19T07:17:00;19.80;;;13.87;;
5937;SDS011;2994;51.220;4.412;2022-08-19T07:19:26;14.07;;;12.50;;
5937;SDS011;2994;51.220;4.412;2022-08-19T07:21:52;16.83;;;12.83;;
5937;SDS011;2994;51.220;4.412;2022-08-19T07:24:19;19.83;;;14.73;;
5937;SDS011;2994;51.220;4.412;2022-08-19T07:26:49;21.83;;;18.03;;
5937;SDS011;2994;51.220;4.412;2022-08-19T07:29:15;26.10;;;20.07;;
5937;SDS011;2994;51.220;4.412;2022-08-19T07:31:41;24.63;;;18.73;;
5937;SDS011;2994;51.220;4.412;2022-08-19T07:34:08;25.20;;;17.63;;
5937;SDS011;2994;51.220;4.412;2022-08-19T07:36:36;25.40;;;19.87;;
5937;SDS011;2994;51.220;4.412;2022-08-19T07:39:07;32.80;;;25.00;;
5937;SDS011;2994;51.220;4.412;2022-08-19T07:41:35;28.43;;;22.47;;
5937;SDS011;2994;51.220;4.412;2022-08-19T07:44:02;31.33;;;23.00;;
5937;SDS011;2994;51.220;4.412;2022-08-19T07:46:32;27.60;;;21.40;;
5937;SDS011;2994;51.220;4.412;2022-08-19T07:48:58;25.77;;;20.43;;
5937;SDS011;2994;51.220;4.412;2022-08-19T07:51:25;35.60;;;25.80;;
5937;SDS011;2994;51.220;4.412;2022-08-19T07:53:51;35.73;;;26.07;;
5937;SDS011;2994;51.220;4.412;2022-08-19T07:56:18;30.40;;;22.50;;
5937;SDS011;2994;51.220;4.412;2022-08-19T07:58:45;34.73;;;24.80;;
5937;SDS011;2994;51.220;4.412;2022-08-19T08:01:13;37.10;;;25.10;;
5937;SDS011;2994;51.220;4.412;2022-08-19T08:03:41;35.20;;;27.73;;
5937;SDS011;2994;51.220;4.412;2022-08-19T08:06:29;33.73;;;25.57;;
5937;SDS011;2994;51.220;4.412;2022-08-19T08:09:14;29.97;;;24.40;;
5937;SDS011;2994;51.220;4.412;2022-08-19T08:14:16;30.37;;;23.67;;
5937;SDS011;2994;51.220;4.412;2022-08-19T08:16:47;31.17;;;24.70;;
5937;SDS011;2994;51.220;4.412;2022-08-19T08:19:14;31.30;;;22.47;;
5937;SDS011;2994;51.220;4.412;2022-08-19T08:21:40;29.77;;;22.83;;
5937;SDS011;2994;51.220;4.412;2022-08-19T08:24:06;29.20;;;22.03;;
5937;SDS011;2994;51.220;4.412;2022-08-19T08:26:32;25.30;;;20.30;;
5937;SDS011;2994;51.220;4.412;2022-08-19T08:28:58;24.17;;;18.67;;
5937;SDS011;2994;51.220;4.412;2022-08-19T08:31:23;26.37;;;19.77;;
5937;SDS011;2994;51.220;4.412;2022-08-19T08:33:49;22.80;;;16.43;;
5937;SDS011;2994;51.220;4.412;2022-08-19T08:36:14;18.50;;;14.73;;
5937;SDS011;2994;51.220;4.412;2022-08-19T08:38:40;20.30;;;15.20;;
5937;SDS011;2994;51.220;4.412;2022-08-19T08:43:53;26.17;;;20.13;;
5937;SDS011;2994;51.220;4.412;2022-08-19T08:52:10;16.53;;;14.33;;
5937;SDS011;2994;51.220;4.412;2022-08-19T08:55:03;16.40;;;12.70;;
5937;SDS011;2994;51.220;4.412;2022-08-19T08:57:35;19.67;;;13.67;;
5937;SDS011;2994;51.220;4.412;2022-08-19T09:00:30;18.70;;;13.90;;
5937;SDS011;2994;51.220;4.412;2022-08-19T09:03:02;20.13;;;15.70;;
5937;SDS011;2994;51.220;4.412;2022-08-19T09:06:12;23.70;;;17.20;;
5937;SDS011;2994;51.220;4.412;2022-08-19T09:11:08;16.60;;;13.47;;
5937;SDS011;2994;51.220;4.412;2022-08-19T09:16:40;17.50;;;11.30;;
5937;SDS011;2994;51.220;4.412;2022-08-19T09:19:07;15.27;;;11.33;;
5937;SDS011;2994;51.220;4.412;2022-08-19T09:21:33;11.77;;;10.57;;
5937;SDS011;2994;51.220;4.412;2022-08-19T09:24:04;14.20;;;10.67;;
5937;SDS011;2994;51.220;4.412;2022-08-19T09:26:30;11.83;;;10.63;;
5937;SDS011;2994;51.220;4.412;2022-08-19T09:28:57;11.90;;;10.70;;
5937;SDS011;2994;51.220;4.412;2022-08-19T09:31:25;14.40;;;10.70;;
5937;SDS011;2994;51.220;4.412;2022-08-19T09:33:52;16.90;;;13.70;;
5937;SDS011;2994;51.220;4.412;2022-08-19T09:36:21;13.80;;;11.30;;
5937;SDS011;2994;51.220;4.412;2022-08-19T09:38:48;17.03;;;11.90;;
5937;SDS011;2994;51.220;4.412;2022-08-19T09:41:15;13.93;;;11.90;;
5937;SDS011;2994;51.220;4.412;2022-08-19T09:43:47;15.80;;;11.60;;
5937;SDS011;2994;51.220;4.412;2022-08-19T09:46:17;18.90;;;12.73;;
5937;SDS011;2994;51.220;4.412;2022-08-19T09:48:45;18.43;;;12.90;;
5937;SDS011;2994;51.220;4.412;2022-08-19T09:51:14;14.90;;;11.60;;
5937;SDS011;2994;51.220;4.412;2022-08-19T09:53:45;15.93;;;12.70;;
5937;SDS011;2994;51.220;4.412;2022-08-19T09:56:11;13.47;;;11.63;;
5937;SDS011;2994;51.220;4.412;2022-08-19T09:58:37;20.27;;;11.43;;
5937;SDS011;2994;51.220;4.412;2022-08-19T10:01:04;17.73;;;11.47;;
5937;SDS011;2994;51.220;4.412;2022-08-19T10:06:01;17.07;;;12.43;;
5937;SDS011;2994;51.220;4.412;2022-08-19T10:08:31;17.23;;;11.50;;
5937;SDS011;2994;51.220;4.412;2022-08-19T10:10:58;16.70;;;12.37;;
5937;SDS011;2994;51.220;4.412;2022-08-19T10:13:26;16.80;;;11.83;;
5937;SDS011;2994;51.220;4.412;2022-08-19T10:15:53;16.90;;;10.50;;
5937;SDS011;2994;51.220;4.412;2022-08-19T10:18:21;18.97;;;12.27;;
5937;SDS011;2994;51.220;4.412;2022-08-19T10:20:49;19.80;;;12.97;;
5937;SDS011;2994;51.220;4.412;2022-08-19T10:23:17;15.80;;;13.60;;
5937;SDS011;2994;51.220;4.412;2022-08-19T10:25:44;19.00;;;13.10;;
5937;SDS011;2994;51.220;4.412;2022-08-19T10:28:10;16.70;;;11.43;;
5937;SDS011;2994;51.220;4.412;2022-08-19T10:30:37;13.43;;;11.40;;
5937;SDS011;2994;51.220;4.412;2022-08-19T10:33:03;12.77;;;10.07;;
5937;SDS011;2994;51.220;4.412;2022-08-19T10:35:29;11.50;;;9.13;;
5937;SDS011;2994;51.220;4.412;2022-08-19T10:37:55;13.93;;;9.30;;
5937;SDS011;2994;51.220;4.412;2022-08-19T10:40:24;13.50;;;10.60;;
5937;SDS011;2994;51.220;4.412;2022-08-19T10:42:53;10.13;;;8.67;;
5937;SDS011;2994;51.220;4.412;2022-08-19T10:45:20;12.27;;;9.20;;
5937;SDS011;2994;51.220;4.412;2022-08-19T10:47:50;11.80;;;8.87;;
5937;SDS011;2994;51.220;4.412;2022-08-19T10:50:16;12.00;;;9.03;;
5937;SDS011;2994;51.220;4.412;2022-08-19T10:53:03;13.17;;;9.67;;
5937;SDS011;2994;51.220;4.412;2022-08-19T10:55:30;14.83;;;10.70;;
5937;SDS011;2994;51.220;4.412;2022-08-19T10:58:15;15.07;;;12.30;;
5937;SDS011;2994;51.220;4.412;2022-08-19T11:01:05;18.50;;;12.17;;
5937;SDS011;2994;51.220;4.412;2022-08-19T11:03:30;12.70;;;11.30;;
5937;SDS011;2994;51.220;4.412;2022-08-19T11:05:57;14.83;;;10.07;;
5937;SDS011;2994;51.220;4.412;2022-08-19T11:08:27;14.57;;;11.20;;
5937;SDS011;2994;51.220;4.412;2022-08-19T11:10:57;13.43;;;10.87;;
5937;SDS011;2994;51.220;4.412;2022-08-19T11:13:29;12.60;;;9.97;;
5937;SDS011;2994;51.220;4.412;2022-08-19T11:16:02;14.90;;;10.60;;
5937;SDS011;2994;51.220;4.412;2022-08-19T11:18:30;12.07;;;10.73;;
5937;SDS011;2994;51.220;4.412;2022-08-19T11:21:04;12.97;;;9.87;;
5937;SDS011;2994;51.220;4.412;2022-08-19T11:23:37;18.53;;;10.63;;
5937;SDS011;2994;51.220;4.412;2022-08-19T11:26:03;14.00;;;9.57;;
5937;SDS011;2994;51.220;4.412;2022-08-19T11:28:29;13.40;;;10.30;;
5937;SDS011;2994;51.220;4.412;2022-08-19T11:30:54;12.47;;;9.70;;
5937;SDS011;2994;51.220;4.412;2022-08-19T11:33:19;10.73;;;9.30;;
5937;SDS011;2994;51.220;4.412;2022-08-19T11:35:45;12.00;;;9.57;;
5937;SDS011;2994;51.220;4.412;2022-08-19T11:38:10;12.03;;;9.70;;
5937;SDS011;2994;51.220;4.412;2022-08-19T11:40:36;11.70;;;8.60;;
5937;SDS011;2994;51.220;4.412;2022-08-19T11:43:02;12.47;;;9.37;;
5937;SDS011;2994;51.220;4.412;2022-08-19T11:45:28;10.30;;;8.57;;
5937;SDS011;2994;51.220;4.412;2022-08-19T11:47:54;8.57;;;7.60;;
5937;SDS011;2994;51.220;4.412;2022-08-19T11:50:20;7.50;;;6.63;;
5937;SDS011;2994;51.220;4.412;2022-08-19T11:52:46;9.20;;;7.67;;
5937;SDS011;2994;51.220;4.412;2022-08-19T11:55:12;10.63;;;8.50;;
5937;SDS011;2994;51.220;4.412;2022-08-19T11:57:38;8.43;;;7.10;;
5937;SDS011;2994;51.220;4.412;2022-08-19T12:00:05;11.30;;;7.70;;
5937;SDS011;2994;51.220;4.412;2022-08-19T12:02:32;9.60;;;7.70;;
5937;SDS011;2994;51.220;4.412;2022-08-19T12:04:58;8.80;;;7.67;;
5937;SDS011;2994;51.220;4.412;2022-08-19T12:07:27;13.00;;;7.97;;
5937;SDS011;2994;51.220;4.412;2022-08-19T12:09:52;7.97;;;6.90;;
5937;SDS011;2994;51.220;4.412;2022-08-19T12:12:17;7.33;;;6.40;;
5937;SDS011;2994;51.220;4.412;2022-08-19T12:14:43;6.27;;;5.63;;
5937;SDS011;2994;51.220;4.412;2022-08-19T12:17:09;7.40;;;6.23;;
5937;SDS011;2994;51.220;4.412;2022-08-19T12:19:36;7.17;;;4.40;;
5937;SDS011;2994;51.220;4.412;2022-08-19T12:22:02;6.63;;;5.97;;
5937;SDS011;2994;51.220;4.412;2022-08-19T12:24:29;7.17;;;5.20;;
5937;SDS011;2994;51.220;4.412;2022-08-19T12:26:56;6.17;;;4.13;;
5937;SDS011;2994;51.220;4.412;2022-08-19T12:29:23;4.93;;;4.43;;
5937;SDS011;2994;51.220;4.412;2022-08-19T12:31:53;6.67;;;6.03;;
5937;SDS011;2994;51.220;4.412;2022-08-19T12:34:19;6.50;;;5.60;;
5937;SDS011;2994;51.220;4.412;2022-08-19T12:36:45;5.43;;;4.93;;
5937;SDS011;2994;51.220;4.412;2022-08-19T12:39:10;4.57;;;4.17;;
5937;SDS011;2994;51.220;4.412;2022-08-19T12:41:36;5.20;;;4.70;;
5937;SDS011;2994;51.220;4.412;2022-08-19T12:44:02;6.07;;;5.47;;
5937;SDS011;2994;51.220;4.412;2022-08-19T12:46:28;5.63;;;5.00;;
5937;SDS011;2994;51.220;4.412;2022-08-19T12:48:53;5.60;;;4.70;;
5937;SDS011;2994;51.220;4.412;2022-08-19T12:51:19;5.10;;;4.67;;
5937;SDS011;2994;51.220;4.412;2022-08-19T12:53:45;5.20;;;3.80;;
5937;SDS011;2994;51.220;4.412;2022-08-19T12:56:11;7.73;;;5.73;;
5937;SDS011;2994;51.220;4.412;2022-08-19T12:58:39;5.70;;;4.07;;
5937;SDS011;2994;51.220;4.412;2022-08-19T13:01:10;5.37;;;4.87;;
5937;SDS011;2994;51.220;4.412;2022-08-19T13:03:39;5.60;;;5.00;;
5937;SDS011;2994;51.220;4.412;2022-08-19T13:06:05;6.03;;;5.43;;
5937;SDS011;2994;51.220;4.412;2022-08-19T13:08:31;5.60;;;4.23;;
5937;SDS011;2994;51.220;4.412;2022-08-19T13:10:57;4.30;;;3.93;;
5937;SDS011;2994;51.220;4.412;2022-08-19T13:13:23;5.33;;;4.63;;
5937;SDS011;2994;51.220;4.412;2022-08-19T13:15:50;3.90;;;3.60;;
5937;SDS011;2994;51.220;4.412;2022-08-19T13:18:15;6.10;;;4.17;;
5937;SDS011;2994;51.220;4.412;2022-08-19T13:20:41;4.43;;;4.03;;
5937;SDS011;2994;51.220;4.412;2022-08-19T13:23:07;4.60;;;3.57;;
5937;SDS011;2994;51.220;4.412;2022-08-19T13:25:33;4.00;;;3.57;;
5937;SDS011;2994;51.220;4.412;2022-08-19T13:27:58;6.70;;;4.00;;
5937;SDS011;2994;51.220;4.412;2022-08-19T13:30:24;4.27;;;3.80;;
5937;SDS011;2994;51.220;4.412;2022-08-19T13:33:09;3.17;;;2.77;;
5937;SDS011;2994;51.220;4.412;2022-08-19T13:35:43;5.80;;;3.50;;
5937;SDS011;2994;51.220;4.412;2022-08-19T13:38:14;3.20;;;2.90;;
5937;SDS011;2994;51.220;4.412;2022-08-19T13:40:46;3.90;;;3.10;;
5937;SDS011;2994;51.220;4.412;2022-08-19T13:43:12;3.07;;;2.83;;
5937;SDS011;2994;51.220;4.412;2022-08-19T13:45:38;3.97;;;2.87;;
5937;SDS011;2994;51.220;4.412;2022-08-19T13:48:05;3.60;;;3.30;;
5937;SDS011;2994;51.220;4.412;2022-08-19T13:50:33;5.73;;;3.20;;
5937;SDS011;2994;51.220;4.412;2022-08-19T13:53:02;4.80;;;2.77;;
5937;SDS011;2994;51.220;4.412;2022-08-19T13:55:28;4.43;;;4.03;;
5937;SDS011;2994;51.220;4.412;2022-08-19T13:57:55;4.10;;;3.70;;
5937;SDS011;2994;51.220;4.412;2022-08-19T14:00:23;3.70;;;2.70;;
5937;SDS011;2994;51.220;4.412;2022-08-19T14:02:51;3.00;;;2.50;;
5937;SDS011;2994;51.220;4.412;2022-08-19T14:05:19;5.00;;;3.67;;
5937;SDS011;2994;51.220;4.412;2022-08-19T14:07:44;3.70;;;3.40;;
5937;SDS011;2994;51.220;4.412;2022-08-19T14:10:10;5.77;;;3.27;;
5937;SDS011;2994;51.220;4.412;2022-08-19T14:12:37;4.90;;;3.90;;
5937;SDS011;2994;51.220;4.412;2022-08-19T14:15:04;3.70;;;3.40;;
5937;SDS011;2994;51.220;4.412;2022-08-19T14:17:32;4.87;;;3.43;;
5937;SDS011;2994;51.220;4.412;2022-08-19T14:19:59;4.43;;;4.03;;
5937;SDS011;2994;51.220;4.412;2022-08-19T14:22:29;3.60;;;3.30;;
5937;SDS011;2994;51.220;4.412;2022-08-19T14:24:56;4.57;;;3.30;;
5937;SDS011;2994;51.220;4.412;2022-08-19T14:27:22;5.37;;;3.70;;
5937;SDS011;2994;51.220;4.412;2022-08-19T14:29:48;4.50;;;4.07;;
5937;SDS011;2994;51.220;4.412;2022-08-19T14:32:14;6.23;;;4.20;;
5937;SDS011;2994;51.220;4.412;2022-08-19T14:34:40;4.23;;;3.83;;
5937;SDS011;2994;51.220;4.412;2022-08-19T14:37:06;4.20;;;3.80;;
5937;SDS011;2994;51.220;4.412;2022-08-19T14:39:31;4.67;;;2.83;;
5937;SDS011;2994;51.220;4.412;2022-08-19T14:41:57;2.70;;;2.40;;
5937;SDS011;2994;51.220;4.412;2022-08-19T14:44:24;3.93;;;2.40;;
5937;SDS011;2994;51.220;4.412;2022-08-19T14:46:49;4.00;;;2.90;;
5937;SDS011;2994;51.220;4.412;2022-08-19T14:49:15;3.20;;;2.87;;
5937;SDS011;2994;51.220;4.412;2022-08-19T14:51:40;4.10;;;2.60;;
5937;SDS011;2994;51.220;4.412;2022-08-19T14:54:06;2.90;;;2.40;;
5937;SDS011;2994;51.220;4.412;2022-08-19T14:56:32;3.20;;;2.70;;
5937;SDS011;2994;51.220;4.412;2022-08-19T14:58:57;3.40;;;2.83;;
5937;SDS011;2994;51.220;4.412;2022-08-19T15:01:26;5.93;;;4.20;;
5937;SDS011;2994;51.220;4.412;2022-08-19T15:03:52;4.63;;;3.03;;
5937;SDS011;2994;51.220;4.412;2022-08-19T15:06:19;8.20;;;3.30;;
5937;SDS011;2994;51.220;4.412;2022-08-19T15:08:47;3.03;;;2.83;;
5937;SDS011;2994;51.220;4.412;2022-08-19T15:11:15;3.40;;;2.30;;
5937;SDS011;2994;51.220;4.412;2022-08-19T15:13:43;3.67;;;2.90;;
5937;SDS011;2994;51.220;4.412;2022-08-19T15:16:10;4.13;;;2.77;;
5937;SDS011;2994;51.220;4.412;2022-08-19T15:18:35;2.97;;;2.67;;